createdAt,value
2022-08-17T00:02:25.343Z,64.80
2022-08-17T00:04:54.696Z,64.70
2022-08-17T00:07:21.498Z,64.80
2022-08-17T00:09:48.208Z,64.90
2022-08-17T00:12:35.115Z,65.10
2022-08-17T00:15:01.636Z,65.20
2022-08-17T00:17:28.401Z,65.30
2022-08-17T00:19:55.107Z,65.20
2022-08-17T00:22:34.522Z,65.30
2022-08-17T00:25:07.211Z,65.40
2022-08-17T00:27:34.611Z,65.50
2022-08-17T00:30:01.557Z,65.50
2022-08-17T00:33:12.624Z,65.60
2022-08-17T00:35:17.621Z,65.70
2022-08-17T00:37:44.357Z,65.70
2022-08-17T00:40:14.056Z,65.90
2022-08-17T00:42:41.609Z,65.80
2022-08-17T00:45:11.857Z,65.70
2022-08-17T00:47:38.506Z,65.80
2022-08-17T00:50:07.764Z,65.90
2022-08-17T00:52:39.762Z,65.90
2022-08-17T00:55:07.708Z,65.90
2022-08-17T00:57:40.013Z,66.10
2022-08-17T01:00:21.268Z,66.10
2022-08-17T01:02:48.651Z,66.30
2022-08-17T01:05:19.377Z,66.40
2022-08-17T01:07:49.290Z,66.40
2022-08-17T01:10:59.083Z,66.50
2022-08-17T01:13:05.049Z,66.60
2022-08-17T01:15:38.569Z,66.70
2022-08-17T01:18:08.400Z,66.70
2022-08-17T01:20:48.314Z,66.60
2022-08-17T01:23:20.907Z,66.60
2022-08-17T01:25:54.040Z,66.60
2022-08-17T01:28:52.359Z,66.70
2022-08-17T01:31:10.767Z,66.70
2022-08-17T01:33:37.708Z,66.90
2022-08-17T01:36:06.952Z,67.00
2022-08-17T01:38:35.293Z,66.90
2022-08-17T01:41:09.399Z,66.90
2022-08-17T01:43:53.684Z,67.00
2022-08-17T01:46:24.819Z,67.30
2022-08-17T01:48:51.612Z,66.90
2022-08-17T01:51:19.117Z,66.90
2022-08-17T01:53:52.439Z,66.20
2022-08-17T01:56:21.925Z,66.00
2022-08-17T01:58:49.152Z,65.90
2022-08-17T02:01:19.347Z,65.90
2022-08-17T02:03:59.133Z,65.90
2022-08-17T02:06:30.619Z,66.20
2022-08-17T02:09:03.437Z,66.40
2022-08-17T02:11:32.715Z,66.40
2022-08-17T02:14:02.753Z,66.50
2022-08-17T02:16:37.776Z,66.60
2022-08-17T02:19:07.343Z,66.70
2022-08-17T02:21:34.519Z,66.60
2022-08-17T02:24:01.537Z,66.40
2022-08-17T02:26:28.278Z,66.40
2022-08-17T02:28:54.966Z,66.70
2022-08-17T02:31:21.683Z,66.80
2022-08-17T02:34:00.260Z,67.00
2022-08-17T02:36:31.806Z,67.10
2022-08-17T02:38:58.610Z,67.10
2022-08-17T02:41:25.555Z,67.10
2022-08-17T02:43:53.081Z,67.10
2022-08-17T02:46:19.750Z,67.30
2022-08-17T02:48:46.499Z,67.20
2022-08-17T02:51:13.243Z,67.20
2022-08-17T02:53:40.038Z,67.10
2022-08-17T02:56:07.081Z,66.70
2022-08-17T02:58:35.696Z,67.00
2022-08-17T03:01:05.862Z,67.10
2022-08-17T03:03:33.031Z,67.20
2022-08-17T03:05:59.695Z,67.10
2022-08-17T03:08:27.189Z,67.20
2022-08-17T03:10:54.041Z,67.10
2022-08-17T03:13:20.860Z,67.20
2022-08-17T03:15:48.622Z,67.30
2022-08-17T03:18:25.401Z,67.40
2022-08-17T03:20:58.156Z,67.60
2022-08-17T03:23:25.775Z,67.70
2022-08-17T03:25:54.080Z,67.70
2022-08-17T03:28:22.140Z,67.80
2022-08-17T03:30:50.944Z,67.80
2022-08-17T03:33:18.168Z,67.80
2022-08-17T03:35:45.034Z,67.80
2022-08-17T03:38:12.754Z,68.00
2022-08-17T03:40:56.728Z,68.00
2022-08-17T03:43:30.571Z,68.00
2022-08-17T03:46:28.452Z,68.10
2022-08-17T03:49:21.735Z,68.20
2022-08-17T03:52:07.104Z,68.10
2022-08-17T03:54:52.787Z,68.00
2022-08-17T03:57:19.514Z,67.90
2022-08-17T03:59:46.534Z,67.90
2022-08-17T04:02:26.745Z,67.90
2022-08-17T04:04:54.148Z,67.90
2022-08-17T04:07:23.351Z,67.90
2022-08-17T04:09:50.547Z,67.70
2022-08-17T04:12:21.728Z,67.90
2022-08-17T04:14:53.169Z,67.90
2022-08-17T04:17:26.194Z,67.80
2022-08-17T04:19:53.843Z,67.70
2022-08-17T04:22:32.681Z,67.40
2022-08-17T04:25:16.997Z,67.50
2022-08-17T04:27:43.964Z,67.70
2022-08-17T04:30:11.703Z,67.70
2022-08-17T04:33:06.496Z,67.60
2022-08-17T04:35:38.487Z,67.50
2022-08-17T04:38:06.838Z,67.20
2022-08-17T04:40:52.591Z,67.20
2022-08-17T04:43:21.919Z,66.90
2022-08-17T04:45:56.176Z,66.90
2022-08-17T04:48:36.234Z,67.00
2022-08-17T04:51:16.724Z,67.30
2022-08-17T04:53:46.080Z,67.30
2022-08-17T04:56:21.377Z,67.60
2022-08-17T04:58:51.441Z,67.60
2022-08-17T05:01:23.377Z,68.00
2022-08-17T05:03:56.470Z,68.00
2022-08-17T05:06:23.686Z,68.20
2022-08-17T05:08:50.317Z,68.30
2022-08-17T05:11:17.124Z,68.30
2022-08-17T05:13:44.675Z,68.00
2022-08-17T05:16:11.600Z,68.20
2022-08-17T05:18:39.029Z,68.10
2022-08-17T05:21:06.985Z,67.90
2022-08-17T05:23:43.060Z,67.70
2022-08-17T05:26:26.495Z,67.70
2022-08-17T05:28:59.831Z,67.40
2022-08-17T05:31:30.700Z,67.30
2022-08-17T05:33:57.999Z,67.60
2022-08-17T05:36:42.230Z,67.70
2022-08-17T05:39:15.960Z,67.60
2022-08-17T05:41:44.963Z,67.60
2022-08-17T05:44:11.621Z,67.70
2022-08-17T05:46:41.938Z,67.40
2022-08-17T05:49:09.466Z,67.10
2022-08-17T05:51:55.688Z,66.90
2022-08-17T05:54:47.926Z,66.70
2022-08-17T05:57:39.914Z,66.50
2022-08-17T06:00:30.902Z,66.30
2022-08-17T06:03:16.746Z,66.30
2022-08-17T06:05:46.129Z,66.40
2022-08-17T06:08:30.968Z,66.40
2022-08-17T06:11:20.446Z,66.40
2022-08-17T06:14:31.718Z,66.30
2022-08-17T06:17:09.419Z,65.70
2022-08-17T06:19:54.519Z,65.60
2022-08-17T06:22:25.112Z,65.70
2022-08-17T06:25:02.061Z,65.60
2022-08-17T06:27:44.999Z,65.40
2022-08-17T06:30:21.382Z,65.40
2022-08-17T06:32:50.980Z,65.40
2022-08-17T06:35:33.592Z,65.20
2022-08-17T06:38:37.215Z,64.70
2022-08-17T06:41:19.613Z,64.40
2022-08-17T06:44:49.719Z,64.30
2022-08-17T06:47:16.169Z,63.80
2022-08-17T06:50:20.409Z,63.70
2022-08-17T06:53:05.769Z,63.50
2022-08-17T06:55:46.941Z,63.50
2022-08-17T06:58:18.102Z,63.80
2022-08-17T07:00:58.534Z,64.10
2022-08-17T07:03:56.860Z,64.30
2022-08-17T07:06:29.275Z,64.20
2022-08-17T07:09:02.293Z,64.20
2022-08-17T07:11:39.816Z,64.30
2022-08-17T07:14:31.073Z,63.90
2022-08-17T07:17:01.215Z,63.20
2022-08-17T07:19:33.035Z,62.60
2022-08-17T07:22:18.411Z,62.30
2022-08-17T07:24:57.220Z,62.00
2022-08-17T07:27:37.610Z,61.70
2022-08-17T07:30:10.305Z,61.50
2022-08-17T07:32:45.705Z,61.30
2022-08-17T07:35:31.217Z,61.30
2022-08-17T07:38:28.081Z,61.60
2022-08-17T07:40:58.143Z,61.60
2022-08-17T07:43:31.192Z,61.80
2022-08-17T07:46:38.012Z,61.90
2022-08-17T07:49:07.385Z,62.40
2022-08-17T07:51:47.979Z,64.90
2022-08-17T07:54:27.391Z,65.10
2022-08-17T07:56:55.763Z,67.20
2022-08-17T07:59:43.301Z,67.70
2022-08-17T08:02:22.130Z,68.70
2022-08-17T08:05:12.940Z,68.80
2022-08-17T08:08:01.577Z,70.00
2022-08-17T08:10:38.820Z,69.40
2022-08-17T08:13:27.372Z,69.40
2022-08-17T08:15:56.813Z,68.90
2022-08-17T08:18:53.572Z,68.70
2022-08-17T08:21:21.253Z,69.00
2022-08-17T08:24:23.103Z,68.10
2022-08-17T08:27:09.124Z,68.60
2022-08-17T08:29:41.910Z,69.10
2022-08-17T08:32:11.682Z,68.90
2022-08-17T08:35:12.970Z,68.70
2022-08-17T08:37:56.853Z,68.70
2022-08-17T08:40:45.887Z,68.80
2022-08-17T08:43:15.321Z,68.50
2022-08-17T08:45:58.585Z,68.00
2022-08-17T08:49:10.091Z,67.80
2022-08-17T08:51:58.164Z,67.20
2022-08-17T08:54:56.338Z,67.10
2022-08-17T08:57:34.676Z,67.10
2022-08-17T09:00:14.746Z,66.90
2022-08-17T09:02:59.144Z,67.20
2022-08-17T09:05:56.961Z,67.30
2022-08-17T09:08:29.846Z,67.50
2022-08-17T09:11:15.115Z,67.30
2022-08-17T09:14:21.663Z,67.30
2022-08-17T09:17:02.655Z,67.70
2022-08-17T09:19:38.733Z,67.80
2022-08-17T09:22:30.378Z,67.40
2022-08-17T09:24:57.223Z,67.40
2022-08-17T09:27:30.930Z,67.40
2022-08-17T09:30:02.982Z,66.90
2022-08-17T09:32:45.464Z,66.70
2022-08-17T09:35:19.771Z,66.70
2022-08-17T09:38:14.711Z,66.30
2022-08-17T09:41:05.532Z,66.20
2022-08-17T09:43:50.927Z,65.60
2022-08-17T09:46:22.900Z,65.00
2022-08-17T09:48:56.575Z,64.30
2022-08-17T09:51:36.474Z,63.60
2022-08-17T09:54:34.767Z,63.20
2022-08-17T09:57:31.092Z,62.80
2022-08-17T10:00:15.833Z,62.40
2022-08-17T10:03:22.719Z,62.20
2022-08-17T10:05:56.696Z,62.10
2022-08-17T10:08:52.230Z,62.00
2022-08-17T10:11:50.770Z,61.90
2022-08-17T10:14:43.789Z,61.80
2022-08-17T10:17:14.489Z,61.70
2022-08-17T10:20:00.980Z,61.70
2022-08-17T10:22:55.134Z,61.60
2022-08-17T10:25:54.644Z,61.50
2022-08-17T10:28:39.283Z,61.40
2022-08-17T10:34:20.778Z,61.40
2022-08-17T10:36:55.221Z,61.40
2022-08-17T10:39:54.684Z,61.50
2022-08-17T10:42:30.329Z,61.60
2022-08-17T10:45:05.853Z,61.60
2022-08-17T10:48:05.349Z,61.60
2022-08-17T10:50:56.120Z,61.50
2022-08-17T10:53:32.028Z,61.40
2022-08-17T10:56:13.751Z,61.10
2022-08-17T10:58:55.516Z,61.10
2022-08-17T11:01:37.957Z,61.10
2022-08-17T11:04:09.853Z,61.00
2022-08-17T11:06:51.381Z,60.80
2022-08-17T11:09:51.822Z,61.10
2022-08-17T11:12:30.570Z,61.30
2022-08-17T11:15:24.662Z,60.90
2022-08-17T11:18:28.535Z,61.50
2022-08-17T11:21:07.750Z,62.40
2022-08-17T11:24:02.695Z,63.00
2022-08-17T11:26:32.010Z,63.00
2022-08-17T11:29:09.442Z,62.90
2022-08-17T11:31:46.467Z,62.50
2022-08-17T11:34:26.135Z,62.50
2022-08-17T11:37:08.924Z,62.20
2022-08-17T11:40:05.286Z,61.30
2022-08-17T11:42:59.283Z,60.00
2022-08-17T11:45:44.629Z,59.60
2022-08-17T11:48:45.959Z,58.90
2022-08-17T11:51:46.572Z,58.40
2022-08-17T11:54:33.768Z,58.70
2022-08-17T11:57:26.570Z,58.80
2022-08-17T12:00:10.962Z,58.90
2022-08-17T12:02:48.308Z,58.60
2022-08-17T12:05:16.772Z,58.40
2022-08-17T12:07:49.087Z,58.20
2022-08-17T12:10:21.495Z,58.20
2022-08-17T12:12:52.729Z,57.90
2022-08-17T12:15:32.307Z,57.60
2022-08-17T12:17:59.319Z,57.40
2022-08-17T12:20:33.676Z,57.20
2022-08-17T12:23:25.537Z,56.90
2022-08-17T12:26:06.294Z,56.80
2022-08-17T12:28:38.566Z,56.80
2022-08-17T12:31:15.984Z,56.80
2022-08-17T12:33:45.387Z,57.10
2022-08-17T12:36:16.203Z,56.90
2022-08-17T12:38:57.169Z,56.80
2022-08-17T12:41:34.171Z,56.90
2022-08-17T12:44:06.099Z,57.00
2022-08-17T12:46:44.680Z,57.00
2022-08-17T12:49:35.477Z,57.20
2022-08-17T12:52:20.102Z,56.70
2022-08-17T12:54:54.279Z,56.80
2022-08-17T12:57:34.766Z,56.60
2022-08-17T13:00:17.434Z,56.80
2022-08-17T13:03:09.006Z,56.70
2022-08-17T13:05:42.844Z,56.70
2022-08-17T13:08:16.130Z,56.50
2022-08-17T13:10:43.909Z,56.30
2022-08-17T13:13:26.639Z,55.80
2022-08-17T13:16:00.185Z,55.60
2022-08-17T13:18:35.037Z,55.40
2022-08-17T13:21:02.229Z,55.20
2022-08-17T13:23:31.264Z,55.30
2022-08-17T13:26:05.890Z,55.70
2022-08-17T13:28:36.332Z,55.40
2022-08-17T13:31:51.901Z,55.20
2022-08-17T13:34:26.805Z,55.20
2022-08-17T13:37:19.421Z,55.20
2022-08-17T13:39:49.816Z,54.30
2022-08-17T13:42:48.132Z,54.70
2022-08-17T13:45:36.733Z,55.10
2022-08-17T13:48:16.872Z,54.60
2022-08-17T13:50:55.653Z,54.90
2022-08-17T13:53:24.067Z,54.40
2022-08-17T13:55:52.265Z,53.90
2022-08-17T13:58:28.094Z,53.10
2022-08-17T14:00:56.173Z,53.60
2022-08-17T14:03:23.948Z,53.50
2022-08-17T14:05:52.551Z,53.60
2022-08-17T14:08:20.671Z,54.00
2022-08-17T14:10:57.248Z,54.30
2022-08-17T14:13:24.265Z,53.70
2022-08-17T14:15:54.810Z,54.20
2022-08-17T14:18:34.266Z,54.00
2022-08-17T14:21:10.493Z,54.20
2022-08-17T14:23:37.617Z,54.20
2022-08-17T14:26:04.806Z,53.80
2022-08-17T14:28:31.970Z,54.00
2022-08-17T14:31:00.297Z,53.90
2022-08-17T14:33:28.647Z,53.90
2022-08-17T14:35:57.424Z,54.00
2022-08-17T14:38:24.577Z,53.60
2022-08-17T14:40:51.330Z,53.60
2022-08-17T14:43:18.592Z,53.20
2022-08-17T14:45:45.262Z,53.50
2022-08-17T14:48:11.907Z,53.60
2022-08-17T14:50:40.963Z,53.30
2022-08-17T14:53:10.523Z,53.50
2022-08-17T14:55:40.389Z,53.70
2022-08-17T14:58:08.761Z,54.00
2022-08-17T15:00:38.037Z,53.90
2022-08-17T15:03:05.224Z,54.10
2022-08-17T15:05:35.301Z,54.10
2022-08-17T15:08:02.790Z,53.40
2022-08-17T15:10:30.580Z,53.50
2022-08-17T15:12:57.807Z,53.80
2022-08-17T15:15:25.016Z,53.60
2022-08-17T15:17:51.988Z,53.40
2022-08-17T15:20:21.435Z,53.80
2022-08-17T15:22:55.936Z,53.40
2022-08-17T15:25:25.050Z,53.30
2022-08-17T15:27:52.193Z,53.40
2022-08-17T15:30:19.376Z,53.20
2022-08-17T15:32:50.845Z,53.00
2022-08-17T15:35:27.407Z,52.90
2022-08-17T15:38:04.568Z,52.80
2022-08-17T15:40:34.957Z,53.00
2022-08-17T15:43:10.765Z,52.80
2022-08-17T15:45:38.269Z,52.90
2022-08-17T15:48:05.188Z,53.10
2022-08-17T15:50:32.174Z,52.80
2022-08-17T15:53:00.701Z,52.60
2022-08-17T15:55:30.186Z,52.60
2022-08-17T15:57:56.856Z,52.60
2022-08-17T16:00:23.964Z,52.10
2022-08-17T16:03:45.260Z,51.90
2022-08-17T16:05:37.783Z,51.70
2022-08-17T16:08:07.508Z,51.90
2022-08-17T16:10:34.762Z,52.00
2022-08-17T16:13:03.061Z,51.90
2022-08-17T16:15:31.395Z,51.90
2022-08-17T16:17:59.714Z,51.50
2022-08-17T16:20:27.012Z,51.60
2022-08-17T16:22:54.966Z,51.70
2022-08-17T16:25:50.328Z,52.00
2022-08-17T16:28:15.368Z,51.80
2022-08-17T16:30:42.430Z,51.60
2022-08-17T16:33:11.506Z,51.90
2022-08-17T16:35:38.669Z,51.00
2022-08-17T16:38:05.498Z,51.50
2022-08-17T16:40:36.068Z,51.20
2022-08-17T16:43:04.148Z,50.70
2022-08-17T16:45:39.945Z,50.70
2022-08-17T16:48:08.322Z,50.80
2022-08-17T16:50:36.083Z,49.80
2022-08-17T16:53:10.215Z,48.90
2022-08-17T16:55:37.270Z,49.50
2022-08-17T16:58:05.566Z,48.00
2022-08-17T17:00:33.455Z,48.90
2022-08-17T17:03:19.433Z,48.40
2022-08-17T17:05:55.337Z,47.60
2022-08-17T17:08:48.373Z,48.40
2022-08-17T17:11:33.999Z,47.50
2022-08-17T17:14:05.915Z,48.80
2022-08-17T17:16:52.515Z,48.10
2022-08-17T17:19:34.628Z,47.20
2022-08-17T17:22:26.774Z,47.20
2022-08-17T17:25:27.884Z,47.80
2022-08-17T17:28:29.421Z,48.10
2022-08-17T17:31:20.369Z,48.30
2022-08-17T17:33:52.434Z,48.20
2022-08-17T17:36:38.227Z,48.30
2022-08-17T17:39:11.737Z,48.80
2022-08-17T17:41:59.625Z,48.70
2022-08-17T17:44:32.950Z,48.50
2022-08-17T17:47:02.191Z,47.80
2022-08-17T17:49:33.927Z,48.20
2022-08-17T17:52:13.182Z,48.50
2022-08-17T17:55:04.399Z,48.80
2022-08-17T17:58:00.483Z,48.60
2022-08-17T18:00:44.095Z,48.60
2022-08-17T18:03:32.778Z,49.00
2022-08-17T18:06:26.363Z,48.20
2022-08-17T18:09:11.494Z,48.60
2022-08-17T18:11:53.116Z,48.90
2022-08-17T18:14:44.610Z,49.00
2022-08-17T18:17:11.969Z,49.20
2022-08-17T18:19:39.825Z,48.50
2022-08-17T18:22:21.432Z,48.70
2022-08-17T18:24:55.732Z,48.90
2022-08-17T18:27:33.632Z,48.70
2022-08-17T18:30:21.385Z,49.00
2022-08-17T18:32:48.156Z,49.40
2022-08-17T18:35:14.779Z,49.30
2022-08-17T18:37:43.120Z,49.20
2022-08-17T18:40:21.734Z,49.50
2022-08-17T18:43:02.722Z,49.70
2022-08-17T18:45:49.569Z,49.90
2022-08-17T18:48:22.107Z,50.10
2022-08-17T18:50:51.373Z,50.30
2022-08-17T18:53:37.096Z,50.70
2022-08-17T18:56:21.370Z,51.10
2022-08-17T18:58:58.758Z,51.20
2022-08-17T19:01:41.682Z,51.20
2022-08-17T19:04:27.331Z,51.10
2022-08-17T19:07:06.684Z,51.30
2022-08-17T19:09:38.118Z,51.40
2022-08-17T19:12:10.114Z,51.80
2022-08-17T19:14:36.895Z,51.90
2022-08-17T19:17:15.505Z,52.00
2022-08-17T19:20:07.513Z,52.10
2022-08-17T19:23:12.015Z,52.20
2022-08-17T19:25:46.005Z,52.50
2022-08-17T19:28:54.450Z,52.80
2022-08-17T19:31:29.688Z,53.20
2022-08-17T19:33:58.353Z,53.60
2022-08-17T19:36:49.248Z,53.70
2022-08-17T19:39:38.005Z,54.00
2022-08-17T19:42:11.593Z,54.00
2022-08-17T19:44:58.928Z,54.20
2022-08-17T19:47:53.654Z,54.20
2022-08-17T19:50:29.905Z,54.00
2022-08-17T19:53:19.552Z,54.00
2022-08-17T19:55:55.105Z,54.10
2022-08-17T19:58:34.057Z,54.20
2022-08-17T20:01:00.930Z,54.10
2022-08-17T20:03:34.823Z,54.10
2022-08-17T20:06:13.076Z,54.50
2022-08-17T20:08:52.825Z,54.70
2022-08-17T20:11:35.164Z,54.70
2022-08-17T20:14:18.838Z,54.90
2022-08-17T20:16:45.854Z,55.00
2022-08-17T20:19:44.611Z,55.20
2022-08-17T20:22:16.584Z,55.40
2022-08-17T20:25:10.797Z,55.40
2022-08-17T20:27:54.907Z,55.70
2022-08-17T20:30:37.526Z,55.70
2022-08-17T20:33:08.163Z,55.70
2022-08-17T20:35:40.303Z,55.80
2022-08-17T20:38:31.695Z,55.90
2022-08-17T20:41:04.210Z,55.80
2022-08-17T20:43:34.015Z,55.90
2022-08-17T20:46:03.581Z,56.00
2022-08-17T20:48:41.643Z,55.90
2022-08-17T20:52:01.768Z,55.70
2022-08-17T20:54:40.828Z,55.50
2022-08-17T20:57:13.677Z,55.30
2022-08-17T20:59:43.971Z,55.20
2022-08-17T21:02:19.715Z,55.30
2022-08-17T21:05:00.153Z,55.60
2022-08-17T21:07:43.086Z,56.00
2022-08-17T21:10:10.471Z,56.20
2022-08-17T21:12:48.103Z,56.40
2022-08-17T21:15:38.863Z,56.40
2022-08-17T21:18:25.922Z,56.40
2022-08-17T21:21:01.932Z,56.40
2022-08-17T21:23:40.341Z,56.60
2022-08-17T21:26:30.134Z,56.90
2022-08-17T21:29:31.936Z,57.70
2022-08-17T21:31:59.716Z,58.20
2022-08-17T21:34:38.753Z,58.40
2022-08-17T21:37:23.582Z,58.80
2022-08-17T21:40:01.458Z,59.00
2022-08-17T21:42:33.156Z,59.10
2022-08-17T21:45:17.898Z,59.40
2022-08-17T21:48:12.381Z,59.70
2022-08-17T21:50:41.691Z,59.70
2022-08-17T21:53:13.628Z,59.90
2022-08-17T21:55:40.592Z,60.10
2022-08-17T21:58:28.889Z,60.10
2022-08-17T22:01:23.756Z,60.00
2022-08-17T22:04:06.509Z,60.10
2022-08-17T22:06:34.948Z,59.90
2022-08-17T22:09:15.591Z,59.60
2022-08-17T22:11:54.173Z,59.80
2022-08-17T22:14:53.444Z,59.70
2022-08-17T22:17:26.280Z,59.80
2022-08-17T22:19:54.240Z,59.80
2022-08-17T22:22:59.668Z,59.90
2022-08-17T22:25:27.989Z,60.10
2022-08-17T22:28:01.600Z,60.30
2022-08-17T22:30:38.707Z,60.50
2022-08-17T22:33:33.413Z,60.70
2022-08-17T22:36:22.645Z,60.90
2022-08-17T22:39:00.975Z,61.10
2022-08-17T22:41:52.555Z,61.20
2022-08-17T22:44:29.396Z,61.40
2022-08-17T22:46:59.080Z,61.40
2022-08-17T22:49:53.432Z,61.40
2022-08-17T22:53:13.780Z,61.60
2022-08-17T22:56:10.979Z,61.60
2022-08-17T22:59:15.173Z,61.70
2022-08-17T23:01:45.365Z,61.60
2022-08-17T23:04:31.171Z,61.60
2022-08-17T23:06:57.858Z,61.70
2022-08-17T23:09:24.570Z,61.70
2022-08-17T23:11:57.216Z,61.60
2022-08-17T23:14:24.612Z,61.60
2022-08-17T23:16:51.722Z,61.70
2022-08-17T23:19:21.170Z,61.70
2022-08-17T23:21:54.127Z,61.80
2022-08-17T23:24:27.587Z,61.80
2022-08-17T23:26:56.993Z,61.80
2022-08-17T23:29:25.021Z,61.80
2022-08-17T23:31:52.436Z,61.80
2022-08-17T23:34:19.473Z,62.00
2022-08-17T23:36:50.660Z,62.00
2022-08-17T23:39:27.477Z,62.00
2022-08-17T23:41:57.237Z,62.00
2022-08-17T23:44:24.398Z,61.90
2022-08-17T23:46:52.503Z,61.80
2022-08-17T23:49:19.673Z,61.60
2022-08-17T23:51:48.645Z,61.60
2022-08-17T23:54:23.954Z,61.50
2022-08-17T23:56:50.728Z,61.60
2022-08-17T23:59:19.721Z,61.70
